Time;durP1;ratioP1;P1;durP2;ratioP2;P2;SDS_P1;SDS_P2;PMS_P1;PMS_P2;Temp;Humidity;BMP_temperature;BMP_pressure;BME280_temperature;BME280_humidity;BME280_pressure;Samples;Min_cycle;Max_cycle;Signal;HPM_P1;HPM_P2
2021/08/08 00:00:48;;;;;;;14.20;5.45;;;;;;;-145.71;100.00;60690.53;4997445;28;20029;-82
2021/08/08 00:03:13;;;;;;;8.93;5.97;;;;;;;-145.71;100.00;60690.53;5001420;28;20025;-82
2021/08/08 00:05:39;;;;;;;8.55;4.90;;;;;;;-145.71;100.00;60690.53;4999626;28;20075;-81
2021/08/08 00:08:04;;;;;;;10.32;7.25;;;;;;;-145.71;100.00;60690.53;5016788;28;20030;-81
2021/08/08 00:10:30;;;;;;;14.93;8.50;;;;;;;-145.71;100.00;60690.53;5011484;28;20120;-82
2021/08/08 00:12:56;;;;;;;10.88;7.47;;;;;;;-145.71;100.00;60690.53;5011343;28;20029;-81
2021/08/08 00:15:21;;;;;;;11.93;4.63;;;;;;;-145.71;100.00;60690.53;4993137;28;20037;-81
2021/08/08 00:17:47;;;;;;;11.07;5.25;;;;;;;-145.71;100.00;60690.53;5010081;28;20168;-81
2021/08/08 00:20:12;;;;;;;13.27;5.43;;;;;;;-145.71;100.00;60690.53;4992698;28;20113;-83
2021/08/08 00:22:39;;;;;;;11.57;4.82;;;;;;;-145.71;100.00;60690.53;5010581;28;20156;-83
2021/08/08 00:25:08;;;;;;;8.38;4.75;;;;;;;-145.71;100.00;60690.53;5010886;28;20037;-83
2021/08/08 00:27:34;;;;;;;7.20;4.50;;;;;;;-145.71;100.00;60690.53;5010575;28;20026;-83
2021/08/08 00:29:59;;;;;;;7.78;5.03;;;;;;;-145.71;100.00;60690.53;5010639;28;20425;-83
2021/08/08 00:32:25;;;;;;;11.18;6.05;;;;;;;-145.71;100.00;60690.53;5010567;28;20482;-83
2021/08/08 00:34:50;;;;;;;10.50;5.55;;;;;;;-145.71;100.00;60690.53;5010720;28;20053;-83
2021/08/08 00:37:16;;;;;;;9.80;6.55;;;;;;;-145.71;100.00;60690.53;5013099;28;20057;-83
2021/08/08 00:39:41;;;;;;;6.97;4.85;;;;;;;-145.71;100.00;60690.53;5017978;28;20026;-84
2021/08/08 00:42:06;;;;;;;8.05;5.40;;;;;;;-145.71;100.00;60690.53;4998215;28;20026;-83
2021/08/08 00:44:32;;;;;;;10.80;7.15;;;;;;;-145.71;100.00;60690.53;4996175;28;20034;-83
2021/08/08 00:46:57;;;;;;;6.45;5.22;;;;;;;-145.71;100.00;60690.53;5014450;28;20089;-84
2021/08/08 00:49:24;;;;;;;9.18;5.15;;;;;;;-145.71;100.00;60690.53;5013303;28;20053;-84
2021/08/08 00:51:50;;;;;;;8.10;5.97;;;;;;;-145.71;100.00;60690.53;5012737;28;20045;-84
2021/08/08 00:54:15;;;;;;;9.23;6.95;;;;;;;-145.71;100.00;60690.53;5011734;28;20064;-84
2021/08/08 00:56:41;;;;;;;10.35;6.70;;;;;;;-145.71;100.00;60690.53;5011862;28;20061;-83
2021/08/08 00:59:06;;;;;;;10.98;5.90;;;;;;;-145.71;100.00;60690.53;5011732;28;20041;-83
2021/08/08 01:01:36;;;;;;;7.60;5.10;;;;;;;-145.71;100.00;60690.53;4992804;28;20025;-83
2021/08/08 01:04:03;;;;;;;9.63;6.22;;;;;;;-145.71;100.00;60690.53;5010441;28;20061;-83
2021/08/08 01:06:43;;;;;;;9.23;7.65;;;;;;;-145.71;100.00;60690.53;5012120;28;20034;-83
2021/08/08 01:09:11;;;;;;;9.18;8.27;;;;;;;-145.71;100.00;60690.53;5013858;28;20033;-84
2021/08/08 01:11:37;;;;;;;12.18;8.60;;;;;;;-145.71;100.00;60690.53;4998435;28;20481;-84
2021/08/08 01:14:04;;;;;;;14.05;8.20;;;;;;;-145.71;100.00;60690.53;5015176;28;20037;-84
2021/08/08 01:16:31;;;;;;;5.82;5.30;;;;;;;-145.71;100.00;60690.53;5013471;28;20083;-84
2021/08/08 01:18:57;;;;;;;5.80;4.00;;;;;;;-145.71;100.00;60690.53;5012479;28;20029;-84
2021/08/08 01:21:25;;;;;;;5.63;4.25;;;;;;;-145.71;100.00;60690.53;5012521;28;20034;-84
2021/08/08 01:24:01;;;;;;;6.90;5.18;;;;;;;-145.71;100.00;60690.53;5011189;28;20050;-83
2021/08/08 01:26:30;;;;;;;10.70;6.45;;;;;;;-145.71;100.00;60690.53;5012032;28;20034;-84
2021/08/08 01:28:56;;;;;;;7.90;6.35;;;;;;;-145.71;100.00;60690.53;4993207;28;20060;-83
2021/08/08 01:31:22;;;;;;;5.15;3.78;;;;;;;-145.71;100.00;60690.53;5014201;28;20049;-84
2021/08/08 01:33:47;;;;;;;4.88;3.72;;;;;;;-145.71;100.00;60690.53;4995950;28;20026;-84
2021/08/08 01:36:14;;;;;;;8.18;4.82;;;;;;;-145.71;100.00;60690.53;5014094;28;20068;-83
2021/08/08 01:42:07;;;;;;;2.35;1.77;;;;;;;-145.71;100.00;60690.53;5018123;28;20065;-84
2021/08/08 01:44:37;;;;;;;2.58;2.30;;;;;;;-145.71;100.00;60690.53;5002229;28;20029;-84
2021/08/08 01:47:03;;;;;;;2.90;1.67;;;;;;;-145.71;100.00;60690.53;4999650;28;20034;-84
2021/08/08 01:49:30;;;;;;;3.25;2.47;;;;;;;-145.71;100.00;60690.53;5015884;28;20034;-84
2021/08/08 01:51:57;;;;;;;2.88;2.22;;;;;;;-145.71;100.00;60690.53;5016126;28;20465;-84
2021/08/08 01:54:23;;;;;;;5.03;1.88;;;;;;;-145.71;100.00;60690.53;5016040;28;20030;-84
2021/08/08 01:56:51;;;;;;;1.90;1.30;;;;;;;-145.71;100.00;60690.53;5015567;28;20038;-84
2021/08/08 01:59:17;;;;;;;4.32;1.20;;;;;;;-145.71;100.00;60690.53;4997075;28;20053;-84
2021/08/08 02:01:43;;;;;;;1.67;1.50;;;;;;;-145.71;100.00;60690.53;5014426;28;20025;-83
2021/08/08 02:04:24;;;;;;;3.00;1.38;;;;;;;-145.71;100.00;60690.53;5014261;28;20037;-84
2021/08/08 02:06:49;;;;;;;4.47;1.00;;;;;;;-145.71;100.00;60690.53;5013386;28;20057;-83
2021/08/08 02:09:15;;;;;;;3.70;1.48;;;;;;;-145.71;100.00;60690.53;4995296;28;20061;-83
2021/08/08 02:11:40;;;;;;;2.85;1.30;;;;;;;-145.71;100.00;60690.53;4995194;28;20053;-83
2021/08/08 02:14:06;;;;;;;1.70;1.23;;;;;;;-145.71;100.00;60690.53;4995253;28;20032;-83
2021/08/08 02:16:32;;;;;;;4.90;1.50;;;;;;;-145.71;100.00;60690.53;4994946;28;20083;-84
2021/08/08 02:18:58;;;;;;;3.30;1.35;;;;;;;-145.71;100.00;60690.53;4995314;28;20029;-83
2021/08/08 02:21:23;;;;;;;1.27;1.17;;;;;;;-145.71;100.00;60690.53;4996856;28;20022;-84
2021/08/08 02:23:49;;;;;;;1.20;1.10;;;;;;;-145.71;100.00;60690.53;5017762;28;20402;-84
2021/08/08 02:26:14;;;;;;;2.78;1.30;;;;;;;-145.71;100.00;60690.53;4999483;28;20037;-84
2021/08/08 02:28:39;;;;;;;3.22;1.30;;;;;;;-145.71;100.00;60690.53;5015782;28;20041;-84
2021/08/08 02:31:05;;;;;;;4.18;1.70;;;;;;;-145.71;100.00;60690.53;4997661;28;20120;-84
2021/08/08 02:33:30;;;;;;;2.72;1.50;;;;;;;-145.71;100.00;60690.53;5014876;28;20049;-84
2021/08/08 02:35:55;;;;;;;2.83;2.05;;;;;;;-145.71;100.00;60690.53;4997903;28;20033;-84
2021/08/08 02:38:21;;;;;;;1.85;1.50;;;;;;;-145.71;100.00;60690.53;5012598;28;20037;-83
2021/08/08 02:40:46;;;;;;;1.48;1.38;;;;;;;-145.71;100.00;60690.53;5011776;28;20034;-83
2021/08/08 02:43:11;;;;;;;5.20;1.55;;;;;;;-145.71;100.00;60690.53;5012473;28;20505;-81
2021/08/08 02:45:37;;;;;;;1.35;1.25;;;;;;;-145.71;100.00;60690.53;4994556;28;20034;-83
2021/08/08 02:48:02;;;;;;;1.85;1.63;;;;;;;-145.71;100.00;60690.53;4994285;28;20508;-83
2021/08/08 02:50:27;;;;;;;3.00;2.30;;;;;;;-145.71;100.00;60690.53;5016611;28;20038;-84
2021/08/08 02:52:56;;;;;;;1.75;1.65;;;;;;;-145.71;100.00;60690.53;4998932;28;20136;-84
2021/08/08 02:55:21;;;;;;;2.45;1.35;;;;;;;-145.71;100.00;60690.53;5014938;28;20033;-83
2021/08/08 02:57:47;;;;;;;4.75;1.83;;;;;;;-145.71;100.00;60690.53;5013531;28;20440;-82
2021/08/08 03:00:13;;;;;;;11.30;2.50;;;;;;;-145.71;100.00;60690.53;5012422;28;20064;-83
2021/08/08 03:02:38;;;;;;;5.38;1.83;;;;;;;-145.71;100.00;60690.53;5012504;28;20026;-82
2021/08/08 03:05:04;;;;;;;3.95;1.77;;;;;;;-145.71;100.00;60690.53;5011907;28;20026;-83
2021/08/08 03:07:29;;;;;;;1.77;1.45;;;;;;;-145.71;100.00;60690.53;5011916;28;20022;-83
2021/08/08 03:09:55;;;;;;;3.28;1.80;;;;;;;-145.71;100.00;60690.53;5012117;28;20046;-80
2021/08/08 03:12:20;;;;;;;2.10;1.90;;;;;;;-145.71;100.00;60690.53;5011767;28;20021;-81
2021/08/08 03:14:45;;;;;;;3.88;1.50;;;;;;;-145.71;100.00;60690.53;5017770;28;20034;-82
2021/08/08 03:17:11;;;;;;;1.80;1.70;;;;;;;-145.71;100.00;60690.53;5016365;28;20389;-84
2021/08/08 03:19:36;;;;;;;1.80;1.60;;;;;;;-145.71;100.00;60690.53;5015522;28;20037;-84
2021/08/08 03:22:02;;;;;;;2.10;1.55;;;;;;;-145.71;100.00;60690.53;5012849;28;20034;-83
2021/08/08 03:24:27;;;;;;;2.45;2.25;;;;;;;-145.71;100.00;60690.53;5011885;28;20505;-84
2021/08/08 03:26:53;;;;;;;2.50;1.90;;;;;;;-145.71;100.00;60690.53;4993678;28;20041;-83
2021/08/08 03:29:18;;;;;;;3.28;1.92;;;;;;;-145.71;100.00;60690.53;5011940;28;20033;-83
2021/08/08 03:31:43;;;;;;;2.03;1.92;;;;;;;-145.71;100.00;60690.53;4994164;28;20040;-83
2021/08/08 03:34:09;;;;;;;4.00;2.35;;;;;;;-145.71;100.00;60690.53;5011589;28;20026;-83
2021/08/08 03:36:34;;;;;;;3.33;2.15;;;;;;;-145.71;100.00;60690.53;5011654;28;20096;-83
2021/08/08 03:38:59;;;;;;;4.15;2.17;;;;;;;-145.71;100.00;60690.53;5011708;28;20119;-83
2021/08/08 03:41:25;;;;;;;2.70;1.75;;;;;;;-145.71;100.00;60690.53;4993718;28;20118;-83
2021/08/08 03:43:50;;;;;;;6.68;3.00;;;;;;;-145.71;100.00;60690.53;5011410;28;20033;-84
2021/08/08 03:46:15;;;;;;;3.38;3.10;;;;;;;-145.71;100.00;60690.53;5016894;28;20029;-84
2021/08/08 03:48:41;;;;;;;2.63;2.00;;;;;;;-145.71;100.00;60690.53;5014316;28;20065;-83
2021/08/08 03:51:06;;;;;;;3.30;2.13;;;;;;;-145.71;100.00;60690.53;5011796;28;20060;-83
2021/08/08 03:53:31;;;;;;;5.00;3.45;;;;;;;-145.71;100.00;60690.53;4993146;28;20022;-83
2021/08/08 03:55:57;;;;;;;3.58;2.50;;;;;;;-145.71;100.00;60690.53;4993671;28;20426;-83
2021/08/08 03:58:23;;;;;;;4.32;2.72;;;;;;;-145.71;100.00;60690.53;5011199;28;20116;-82
2021/08/08 04:00:48;;;;;;;4.95;2.70;;;;;;;-145.71;100.00;60690.53;5011391;28;20792;-84
2021/08/08 04:03:14;;;;;;;3.33;2.97;;;;;;;-145.71;100.00;60690.53;5010982;28;20096;-83
2021/08/08 04:05:39;;;;;;;3.53;3.22;;;;;;;-145.71;100.00;60690.53;5011150;28;20751;-83
2021/08/08 04:08:05;;;;;;;2.95;2.72;;;;;;;-145.71;100.00;60690.53;5011233;28;20057;-83
2021/08/08 04:10:30;;;;;;;5.13;3.92;;;;;;;-145.71;100.00;60690.53;4993414;28;20036;-83
2021/08/08 04:12:56;;;;;;;4.40;3.80;;;;;;;-145.71;100.00;60690.53;5015121;28;20033;-84
2021/08/08 04:15:22;;;;;;;4.43;3.67;;;;;;;-145.71;100.00;60690.53;5013169;28;20033;-83
2021/08/08 04:17:47;;;;;;;3.58;3.15;;;;;;;-145.71;100.00;60690.53;5014124;28;20034;-84
2021/08/08 04:20:13;;;;;;;4.88;3.75;;;;;;;-145.71;100.00;60690.53;5014179;28;20121;-83
2021/08/08 04:22:38;;;;;;;3.67;3.20;;;;;;;-145.71;100.00;60690.53;4995033;28;20022;-84
2021/08/08 04:25:04;;;;;;;4.63;4.22;;;;;;;-145.71;100.00;60690.53;5013395;28;20041;-84
2021/08/08 04:27:29;;;;;;;4.38;3.97;;;;;;;-145.71;100.00;60690.53;5012527;28;20113;-84
2021/08/08 04:29:55;;;;;;;4.13;3.72;;;;;;;-145.71;100.00;60690.53;5011665;28;20029;-83
2021/08/08 04:32:20;;;;;;;6.82;5.13;;;;;;;-145.71;100.00;60690.53;5011622;28;20417;-84
2021/08/08 04:34:45;;;;;;;5.75;3.70;;;;;;;-145.71;100.00;60690.53;5011611;28;20029;-83
2021/08/08 04:37:11;;;;;;;4.75;4.15;;;;;;;-145.71;100.00;60690.53;4993520;28;20132;-84
2021/08/08 04:39:36;;;;;;;8.45;5.28;;;;;;;-145.71;100.00;60690.53;5010962;28;20030;-83
2021/08/08 04:42:02;;;;;;;4.63;4.22;;;;;;;-145.71;100.00;60690.53;5013229;28;20037;-84
2021/08/08 04:44:27;;;;;;;6.78;5.70;;;;;;;-145.71;100.00;60690.53;5015268;28;20036;-84
2021/08/08 04:46:53;;;;;;;5.40;3.70;;;;;;;-145.71;100.00;60690.53;5013808;28;20034;-84
2021/08/08 04:49:18;;;;;;;10.50;5.35;;;;;;;-145.71;100.00;60690.53;5014012;28;20177;-84
2021/08/08 04:51:43;;;;;;;6.45;5.63;;;;;;;-145.71;100.00;60690.53;4994826;28;20025;-84
2021/08/08 04:54:09;;;;;;;6.70;4.85;;;;;;;-145.71;100.00;60690.53;5012345;28;20045;-83
2021/08/08 04:56:35;;;;;;;7.18;5.03;;;;;;;-145.71;100.00;60690.53;5012152;28;20030;-84
2021/08/08 04:59:00;;;;;;;6.85;6.05;;;;;;;-145.71;100.00;60690.53;5011345;28;20084;-84
2021/08/08 05:01:25;;;;;;;5.93;4.38;;;;;;;-145.71;100.00;60690.53;5010822;28;20061;-84
2021/08/08 05:03:51;;;;;;;6.63;5.80;;;;;;;-145.71;100.00;60690.53;5011353;28;20021;-83
2021/08/08 05:06:16;;;;;;;8.20;5.35;;;;;;;-145.71;100.00;60690.53;5016715;28;20040;-83
2021/08/08 05:08:42;;;;;;;8.05;6.38;;;;;;;-145.71;100.00;60690.53;5014754;28;20060;-83
2021/08/08 05:11:07;;;;;;;6.43;5.47;;;;;;;-145.71;100.00;60690.53;5016107;28;20591;-84
2021/08/08 05:13:33;;;;;;;9.13;6.20;;;;;;;-145.71;100.00;60690.53;5022124;28;20478;-84
2021/08/08 05:15:58;;;;;;;7.38;5.78;;;;;;;-145.71;100.00;60690.53;5019405;28;20114;-84
2021/08/08 05:18:24;;;;;;;9.70;6.13;;;;;;;-145.71;100.00;60690.53;5018551;28;20048;-84
2021/08/08 05:20:49;;;;;;;7.95;6.45;;;;;;;-145.71;100.00;60690.53;5018444;28;20440;-83
2021/08/08 05:23:15;;;;;;;6.38;4.47;;;;;;;-145.71;100.00;60690.53;4996198;28;20057;-84
2021/08/08 05:25:41;;;;;;;8.82;7.25;;;;;;;-145.71;100.00;60690.53;4998076;28;20113;-84
2021/08/08 05:28:06;;;;;;;8.70;5.25;;;;;;;-145.71;100.00;60690.53;4996323;28;20026;-83
2021/08/08 05:30:31;;;;;;;7.50;6.15;;;;;;;-145.71;100.00;60690.53;4993704;28;20042;-84
2021/08/08 05:32:58;;;;;;;5.85;5.18;;;;;;;-145.71;100.00;60690.53;4996156;28;20149;-84
2021/08/08 05:35:23;;;;;;;10.00;8.82;;;;;;;-145.71;100.00;60690.53;4993950;28;20113;-83
2021/08/08 05:37:49;;;;;;;8.90;5.38;;;;;;;-145.71;100.00;60690.53;4993845;28;20026;-83
2021/08/08 05:40:14;;;;;;;7.65;5.78;;;;;;;-145.71;100.00;60690.53;4992863;28;20038;-83
2021/08/08 05:42:46;;;;;;;6.18;5.57;;;;;;;-145.71;100.00;60690.53;4993973;28;20037;-83
2021/08/08 05:45:11;;;;;;;10.55;6.80;;;;;;;-145.71;100.00;60690.53;4999272;28;20030;-84
2021/08/08 05:47:37;;;;;;;7.53;6.18;;;;;;;-145.71;100.00;60690.53;5000468;28;20061;-84
2021/08/08 05:50:02;;;;;;;12.43;7.75;;;;;;;-145.71;100.00;60690.53;4997763;28;20065;-84
2021/08/08 05:52:27;;;;;;;6.43;5.75;;;;;;;-145.71;100.00;60690.53;4997878;28;20033;-84
2021/08/08 05:54:53;;;;;;;7.63;6.25;;;;;;;-145.71;100.00;60690.53;4997156;28;20042;-84
2021/08/08 05:57:18;;;;;;;13.52;9.82;;;;;;;-145.71;100.00;60690.53;4996891;28;20034;-84
2021/08/08 05:59:43;;;;;;;11.75;9.95;;;;;;;-145.71;100.00;60690.53;4994136;28;20083;-84
2021/08/08 06:02:09;;;;;;;8.98;7.75;;;;;;;-145.71;100.00;60690.53;4994040;28;20483;-84
2021/08/08 06:04:34;;;;;;;12.50;8.43;;;;;;;-145.71;100.00;60690.53;4994660;28;20491;-84
2021/08/08 06:07:00;;;;;;;9.13;8.23;;;;;;;-145.71;100.00;60690.53;4991970;28;20026;-83
2021/08/08 06:09:25;;;;;;;9.25;8.20;;;;;;;-145.71;100.00;60690.53;4992341;28;20030;-83
2021/08/08 06:11:51;;;;;;;9.90;8.77;;;;;;;-145.71;100.00;60690.53;4993876;28;20035;-83
2021/08/08 06:14:16;;;;;;;9.48;8.52;;;;;;;-145.71;100.00;60690.53;4992378;28;20042;-83
2021/08/08 06:16:41;;;;;;;10.55;8.82;;;;;;;-145.71;100.00;60690.53;4992680;28;20038;-83
2021/08/08 06:19:07;;;;;;;12.15;9.77;;;;;;;-145.71;100.00;60690.53;4997006;28;20026;-84
2021/08/08 06:21:32;;;;;;;8.55;7.72;;;;;;;-145.71;100.00;60690.53;4996344;28;20405;-83
2021/08/08 06:23:57;;;;;;;10.50;9.40;;;;;;;-145.71;100.00;60690.53;4995777;28;20066;-84
2021/08/08 06:26:23;;;;;;;12.20;11.00;;;;;;;-145.71;100.00;60690.53;4996872;28;20034;-84
2021/08/08 06:28:48;;;;;;;14.77;11.75;;;;;;;-145.71;100.00;60690.53;4995855;28;20060;-83
2021/08/08 06:31:14;;;;;;;12.18;10.82;;;;;;;-145.71;100.00;60690.53;4991791;28;20030;-84
2021/08/08 06:33:39;;;;;;;11.77;10.63;;;;;;;-145.71;100.00;60690.53;4993092;28;20028;-83
2021/08/08 06:36:04;;;;;;;11.52;9.55;;;;;;;-145.71;100.00;60690.53;4991063;28;20022;-82
2021/08/08 06:38:30;;;;;;;11.50;8.30;;;;;;;-145.71;100.00;60690.53;4992813;28;20468;-83
2021/08/08 06:40:55;;;;;;;12.27;10.85;;;;;;;-145.71;100.00;60690.53;4991408;28;20026;-83
2021/08/08 06:43:21;;;;;;;13.95;8.57;;;;;;;-145.71;100.00;60690.53;4991120;28;20022;-83
2021/08/08 06:45:46;;;;;;;15.80;12.73;;;;;;;-145.71;100.00;60690.53;4992853;28;20034;-83
2021/08/08 06:48:11;;;;;;;10.48;9.43;;;;;;;-145.71;100.00;60690.53;4992445;28;20034;-84
2021/08/08 06:50:37;;;;;;;12.93;10.38;;;;;;;-145.71;100.00;60690.53;4997502;28;20110;-84
2021/08/08 06:53:02;;;;;;;11.07;8.57;;;;;;;-145.71;100.00;60690.53;4994981;28;20046;-84
2021/08/08 06:55:27;;;;;;;11.60;10.25;;;;;;;-145.71;100.00;60690.53;4993835;28;20029;-84
2021/08/08 06:57:53;;;;;;;9.45;8.00;;;;;;;-145.71;100.00;60690.53;4994322;28;20026;-84
2021/08/08 07:00:18;;;;;;;11.48;9.48;;;;;;;-145.71;100.00;60690.53;4992650;28;20490;-84
2021/08/08 07:02:45;;;;;;;9.30;8.40;;;;;;;-145.71;100.00;60690.53;4992520;28;20130;-84
2021/08/08 07:05:10;;;;;;;10.98;10.07;;;;;;;-145.71;100.00;60690.53;4990920;28;20034;-84
2021/08/08 07:07:36;;;;;;;9.48;8.63;;;;;;;-145.71;100.00;60690.53;4992806;28;20489;-83
2021/08/08 07:10:02;;;;;;;12.15;8.25;;;;;;;-145.71;100.00;60690.53;4993145;28;20041;-84
2021/08/08 07:12:27;;;;;;;9.63;7.50;;;;;;;-145.71;100.00;60690.53;4991006;28;20034;-84
2021/08/08 07:14:53;;;;;;;9.48;6.68;;;;;;;-145.71;100.00;60690.53;4992897;28;20036;-84
2021/08/08 07:17:18;;;;;;;12.02;8.30;;;;;;;-145.71;100.00;60690.53;4992434;28;20094;-84
2021/08/08 07:19:43;;;;;;;8.80;6.82;;;;;;;-145.71;100.00;60690.53;4992631;28;20078;-81
2021/08/08 07:22:10;;;;;;;11.13;7.45;;;;;;;-145.71;100.00;60690.53;4990916;28;20029;-82
2021/08/08 07:24:35;;;;;;;8.88;6.03;;;;;;;-145.71;100.00;60690.53;5010846;28;20137;-84
2021/08/08 07:27:00;;;;;;;11.18;8.20;;;;;;;-145.71;100.00;60690.53;4999948;28;20123;-85
2021/08/08 07:29:26;;;;;;;7.53;6.10;;;;;;;-145.71;100.00;60690.53;4998319;28;20035;-84
2021/08/08 07:31:53;;;;;;;10.38;6.65;;;;;;;-145.71;100.00;60690.53;5014982;28;20034;-84
2021/08/08 07:34:18;;;;;;;8.85;5.82;;;;;;;-145.71;100.00;60690.53;5014356;28;20034;-84
2021/08/08 07:36:44;;;;;;;8.55;5.57;;;;;;;-145.71;100.00;60690.53;5014120;28;20037;-84
2021/08/08 07:39:09;;;;;;;8.27;6.10;;;;;;;-145.71;100.00;60690.53;5013431;28;20026;-81
2021/08/08 07:41:35;;;;;;;10.00;4.70;;;;;;;-145.71;100.00;60690.53;4995274;28;20128;-81
2021/08/08 07:44:00;;;;;;;7.60;5.75;;;;;;;-145.71;100.00;60690.53;4994895;28;20042;-81
2021/08/08 07:46:25;;;;;;;7.35;4.47;;;;;;;-145.71;100.00;60690.53;5012281;28;20029;-81
2021/08/08 07:48:51;;;;;;;4.47;4.07;;;;;;;-145.71;100.00;60690.53;5012118;28;20025;-82
2021/08/08 07:51:17;;;;;;;8.52;4.57;;;;;;;-145.71;100.00;60690.53;5011500;28;20026;-81
2021/08/08 07:53:42;;;;;;;4.95;3.95;;;;;;;-145.71;100.00;60690.53;5011074;28;20077;-81
2021/08/08 07:56:08;;;;;;;6.53;4.05;;;;;;;-145.71;100.00;60690.53;5011017;28;20390;-81
2021/08/08 07:58:33;;;;;;;5.28;3.67;;;;;;;-145.71;100.00;60690.53;5013015;28;20034;-82
2021/08/08 08:00:59;;;;;;;6.32;3.92;;;;;;;-145.71;100.00;60690.53;5017005;28;20429;-82
2021/08/08 08:03:24;;;;;;;5.80;3.97;;;;;;;-145.71;100.00;60690.53;4996978;28;20069;-82
2021/08/08 08:05:50;;;;;;;5.38;3.60;;;;;;;-145.71;100.00;60690.53;5014426;28;20041;-82
2021/08/08 08:08:15;;;;;;;5.25;2.90;;;;;;;-145.71;100.00;60690.53;5014674;28;20029;-82
2021/08/08 08:10:41;;;;;;;7.15;3.30;;;;;;;-145.71;100.00;60690.53;5013928;28;20028;-81
2021/08/08 08:13:06;;;;;;;5.95;3.00;;;;;;;-145.71;100.00;60690.53;5012866;28;20022;-81
2021/08/08 08:15:31;;;;;;;3.67;3.05;;;;;;;-145.71;100.00;60690.53;4994824;28;20112;-81
2021/08/08 08:17:57;;;;;;;3.47;2.97;;;;;;;-145.71;100.00;60690.53;5012109;28;20021;-82
2021/08/08 08:20:22;;;;;;;4.38;2.80;;;;;;;-145.71;100.00;60690.53;5014939;28;20549;-82
2021/08/08 08:22:48;;;;;;;3.97;2.60;;;;;;;-145.71;100.00;60690.53;4994627;28;20050;-81
2021/08/08 08:25:14;;;;;;;4.32;2.60;;;;;;;-145.71;100.00;60690.53;4993908;28;20030;-81
2021/08/08 08:27:41;;;;;;;7.28;2.30;;;;;;;-145.71;100.00;60690.53;5011056;28;20174;-81
2021/08/08 08:30:08;;;;;;;4.57;2.95;;;;;;;-145.71;100.00;60690.53;5011832;28;20025;-84
2021/08/08 08:32:33;;;;;;;3.33;2.75;;;;;;;-145.71;100.00;60690.53;5011960;28;20025;-84
2021/08/08 08:35:02;;;;;;;4.35;3.22;;;;;;;-145.71;100.00;60690.53;5011977;28;20477;-84
2021/08/08 08:37:28;;;;;;;4.47;2.33;;;;;;;-145.71;100.00;60690.53;5016243;28;20396;-82
2021/08/08 08:39:53;;;;;;;3.97;2.22;;;;;;;-145.71;100.00;60690.53;5022121;28;20394;-81
2021/08/08 08:42:19;;;;;;;4.72;3.00;;;;;;;-145.71;100.00;60690.53;5021547;28;20040;-81
2021/08/08 08:44:45;;;;;;;5.25;2.90;;;;;;;-145.71;100.00;60690.53;5020140;28;20092;-82
2021/08/08 08:47:14;;;;;;;7.07;2.72;;;;;;;-145.71;100.00;60690.53;5019446;28;20029;-81
2021/08/08 08:49:46;;;;;;;5.55;3.28;;;;;;;-145.71;100.00;60690.53;5019200;28;20477;-81
2021/08/08 08:52:12;;;;;;;6.53;3.65;;;;;;;-145.71;100.00;60690.53;4999682;28;20541;-81
2021/08/08 08:54:37;;;;;;;5.15;4.68;;;;;;;-145.71;100.00;60690.53;4999870;28;20370;-81
2021/08/08 08:57:04;;;;;;;7.28;5.82;;;;;;;-145.71;100.00;60690.53;5019299;28;20035;-81
2021/08/08 08:59:30;;;;;;;9.00;4.95;;;;;;;-145.71;100.00;60690.53;5017446;28;20038;-81
2021/08/08 09:01:56;;;;;;;6.70;4.07;;;;;;;-145.71;100.00;60690.53;5017594;28;20033;-81
2021/08/08 09:04:21;;;;;;;5.15;4.65;;;;;;;-145.71;100.00;60690.53;5018181;28;20084;-85
2021/08/08 09:06:46;;;;;;;5.43;3.80;;;;;;;-145.71;100.00;60690.53;4998338;28;20026;-82
2021/08/08 09:09:12;;;;;;;9.73;4.80;;;;;;;-145.71;100.00;60690.53;5018367;28;20026;-82
2021/08/08 09:11:39;;;;;;;8.38;5.60;;;;;;;-145.71;100.00;60690.53;5024709;28;20060;-82
2021/08/08 09:14:05;;;;;;;4.90;3.63;;;;;;;-145.71;100.00;60690.53;5023511;28;20030;-82
2021/08/08 09:16:38;;;;;;;6.20;5.15;;;;;;;-145.71;100.00;60690.53;5014063;28;20034;-82
2021/08/08 09:19:03;;;;;;;10.25;5.68;;;;;;;-145.71;100.00;60690.53;5013058;28;20036;-81
2021/08/08 09:21:29;;;;;;;4.60;3.72;;;;;;;-145.71;100.00;60690.53;5022289;28;20029;-80
2021/08/08 09:23:59;;;;;;;7.10;3.58;;;;;;;-145.71;100.00;60690.53;5024631;28;20074;-80
2021/08/08 09:26:29;;;;;;;6.30;3.65;;;;;;;-145.71;100.00;60690.53;5016891;28;20041;-81
2021/08/08 09:29:05;;;;;;;4.03;3.20;;;;;;;-145.71;100.00;60690.53;5034294;28;20124;-81
2021/08/08 09:31:38;;;;;;;6.65;3.00;;;;;;;-145.71;100.00;60690.53;5036923;28;20104;-81
2021/08/08 09:34:04;;;;;;;3.88;2.92;;;;;;;-145.71;100.00;60690.53;5007547;28;20147;-80
2021/08/08 09:36:39;;;;;;;7.30;2.92;;;;;;;-145.71;100.00;60690.53;5030280;28;20560;-81
2021/08/08 09:39:04;;;;;;;2.63;2.20;;;;;;;-145.71;100.00;60690.53;4998962;28;20087;-79
2021/08/08 09:41:31;;;;;;;3.58;2.90;;;;;;;-145.71;100.00;60690.53;5023386;28;20412;-80
2021/08/08 09:44:08;;;;;;;3.83;2.47;;;;;;;-145.71;100.00;60690.53;5026151;28;20049;-81
2021/08/08 09:46:34;;;;;;;3.88;2.63;;;;;;;-145.71;100.00;60690.53;5032659;28;20033;-81
2021/08/08 09:49:13;;;;;;;3.65;2.83;;;;;;;-145.71;100.00;60690.53;4999717;28;20033;-80
2021/08/08 09:51:52;;;;;;;3.33;3.03;;;;;;;-145.71;100.00;60690.53;5021255;28;20053;-81
2021/08/08 09:54:19;;;;;;;3.97;2.67;;;;;;;-145.71;100.00;60690.53;5004709;28;20057;-80
2021/08/08 09:56:44;;;;;;;3.90;2.97;;;;;;;-145.71;100.00;60690.53;5031959;28;20035;-81
2021/08/08 09:59:09;;;;;;;3.83;2.58;;;;;;;-145.71;100.00;60690.53;5017037;28;20017;-80
2021/08/08 10:01:39;;;;;;;4.53;2.67;;;;;;;-145.71;100.00;60690.53;5032913;28;20029;-81
2021/08/08 10:04:05;;;;;;;6.30;2.88;;;;;;;-145.71;100.00;60690.53;5006620;28;20127;-79
2021/08/08 10:06:31;;;;;;;3.17;2.28;;;;;;;-145.71;100.00;60690.53;5016524;28;20053;-81
2021/08/08 10:08:57;;;;;;;3.88;2.30;;;;;;;-145.71;100.00;60690.53;4994615;28;20481;-81
2021/08/08 10:11:23;;;;;;;2.90;1.98;;;;;;;-145.71;100.00;60690.53;5008909;28;20029;-80
2021/08/08 10:14:02;;;;;;;3.03;1.77;;;;;;;-145.71;100.00;60690.53;5022174;28;20457;-80
2021/08/08 10:16:34;;;;;;;3.83;2.00;;;;;;;-145.71;100.00;60690.53;5019157;28;20026;-80
2021/08/08 10:19:01;;;;;;;3.13;1.58;;;;;;;-145.71;100.00;60690.53;5028741;28;20849;-81
2021/08/08 10:21:32;;;;;;;3.22;1.70;;;;;;;-145.71;100.00;60690.53;5017427;28;20034;-80
2021/08/08 10:24:03;;;;;;;3.05;1.60;;;;;;;-145.71;100.00;60690.53;5029016;28;20053;-80
2021/08/08 10:26:30;;;;;;;2.38;1.67;;;;;;;-145.71;100.00;60690.53;5031330;28;20029;-80
2021/08/08 10:28:57;;;;;;;4.53;1.83;;;;;;;-145.71;100.00;60690.53;5030427;28;20037;-80
2021/08/08 10:31:24;;;;;;;2.42;1.55;;;;;;;-145.71;100.00;60690.53;5024725;28;20053;-79
2021/08/08 10:33:53;;;;;;;3.55;1.90;;;;;;;-145.71;100.00;60690.53;5004055;28;20097;-81
2021/08/08 10:36:24;;;;;;;3.95;1.80;;;;;;;-145.71;100.00;60690.53;5022391;28;20436;-81
2021/08/08 10:39:06;;;;;;;3.75;1.60;;;;;;;-145.71;100.00;60690.53;5011862;28;20029;-80
2021/08/08 10:41:31;;;;;;;4.15;1.70;;;;;;;-145.71;100.00;60690.53;5013317;28;20057;-80
2021/08/08 10:44:17;;;;;;;3.67;1.60;;;;;;;-145.71;100.00;60690.53;5012304;28;20062;-81
2021/08/08 10:46:47;;;;;;;3.30;1.95;;;;;;;-145.71;100.00;60690.53;5011975;28;20135;-80
2021/08/08 10:49:13;;;;;;;2.47;1.80;;;;;;;-145.71;100.00;60690.53;4982613;28;20021;-81
2021/08/08 10:51:38;;;;;;;5.43;1.90;;;;;;;-145.71;100.00;60690.53;5025526;28;20026;-81
2021/08/08 10:54:06;;;;;;;3.85;1.77;;;;;;;-145.71;100.00;60690.53;5023829;28;20045;-81
2021/08/08 10:56:48;;;;;;;2.97;1.70;;;;;;;-145.71;100.00;60690.53;5016092;28;20037;-80
2021/08/08 10:59:22;;;;;;;4.43;1.83;;;;;;;-145.71;100.00;60690.53;4999814;28;20025;-80
2021/08/08 11:02:10;;;;;;;4.70;1.58;;;;;;;-145.71;100.00;60690.53;5020852;28;20036;-80
2021/08/08 11:04:36;;;;;;;5.75;1.60;;;;;;;-145.71;100.00;60690.53;5012102;28;20026;-81
2021/08/08 11:07:03;;;;;;;4.53;2.00;;;;;;;-145.71;100.00;60690.53;5027978;28;20041;-80